createdAt,value
2017-05-26T00:02:00.683Z,0
2017-05-26T00:11:58.482Z,0
2017-05-26T00:16:54.567Z,0
2017-05-26T00:21:51.104Z,0
2017-05-26T00:26:49.198Z,0
2017-05-26T00:41:49.415Z,0
2017-05-26T00:46:46.862Z,0
2017-05-26T00:51:50.814Z,0
2017-05-26T01:01:48.942Z,0
2017-05-26T01:06:48.469Z,0
2017-05-26T01:11:45.988Z,0
2017-05-26T01:16:47.809Z,0
2017-05-26T01:41:56.093Z,0
2017-05-26T01:46:53.694Z,0
2017-05-26T01:51:51.064Z,0
2017-05-26T02:01:47.369Z,0
2017-05-26T02:06:43.474Z,0
2017-05-26T02:11:40.650Z,0
2017-05-26T02:16:37.689Z,0
2017-05-26T02:21:34.086Z,0
2017-05-26T02:31:30.956Z,0
2017-05-26T02:36:27.534Z,0
2017-05-26T02:41:23.747Z,0
2017-05-26T02:46:19.471Z,0
2017-05-26T02:51:15.823Z,0
2017-05-26T02:56:11.865Z,0
2017-05-26T03:01:07.634Z,0
2017-05-26T03:06:04.239Z,0
2017-05-26T03:16:03.038Z,0
2017-05-26T03:20:58.180Z,5
2017-05-26T03:25:54.254Z,5
2017-05-26T03:30:50.120Z,10
2017-05-26T03:35:45.881Z,10
2017-05-26T03:45:45.403Z,20
2017-05-26T03:50:40.535Z,25
2017-05-26T03:55:37.484Z,30
2017-05-26T04:00:33.344Z,35
2017-05-26T04:05:31.327Z,40
2017-05-26T04:10:26.889Z,45
2017-05-26T04:15:24.312Z,50
2017-05-26T04:20:20.176Z,55
2017-05-26T04:25:15.682Z,95
2017-05-26T04:30:12.868Z,100
2017-05-26T04:35:09.251Z,105
2017-05-26T04:40:05.651Z,110
2017-05-26T04:45:01.953Z,115
2017-05-26T04:49:58.571Z,120
2017-05-26T04:54:55.353Z,110
2017-05-26T04:59:53.233Z,125
2017-05-26T05:04:50.059Z,130
2017-05-26T05:09:46.755Z,130
2017-05-26T05:19:49.345Z,125
2017-05-26T05:29:46.937Z,120
2017-05-26T05:34:42.772Z,145
2017-05-26T05:39:38.775Z,145
2017-05-26T05:49:38.483Z,120
2017-05-26T05:54:37.112Z,110
2017-05-26T06:04:36.922Z,100
2017-05-26T06:09:34.752Z,105
2017-05-26T06:14:30.945Z,105
2017-05-26T06:29:38.322Z,105
2017-05-26T06:34:35.709Z,105
2017-05-26T06:39:36.890Z,110
2017-05-26T06:44:34.541Z,110
2017-05-26T06:54:30.865Z,110
2017-05-26T07:09:38.514Z,125
2017-05-26T07:14:41.819Z,120
2017-05-26T07:19:37.910Z,120
2017-05-26T07:24:34.902Z,125
2017-05-26T08:04:53.333Z,1250
2017-05-26T08:09:51.702Z,1325
2017-05-26T08:24:58.987Z,1210
2017-05-26T08:29:55.930Z,1320
2017-05-26T08:34:59.544Z,1020
2017-05-26T08:39:56.608Z,1390
2017-05-26T08:44:55.515Z,1585
2017-05-26T08:49:51.443Z,1700
2017-05-26T08:54:48.104Z,1745
2017-05-26T08:59:47.990Z,1640
2017-05-26T09:04:52.220Z,1675
2017-05-26T09:09:51.845Z,1495
2017-05-26T09:19:48.306Z,1795
2017-05-26T09:24:45.161Z,1620
2017-05-26T09:39:40.903Z,1880
2017-05-26T09:44:39.937Z,1790
2017-05-26T09:54:36.930Z,1920
2017-05-26T09:59:32.830Z,1775
2017-05-26T10:04:29.343Z,2055
2017-05-26T10:09:24.543Z,2105
2017-05-26T10:14:20.461Z,1770
2017-05-26T10:19:20.806Z,2015
2017-05-26T10:24:16.767Z,2040
2017-05-26T10:34:15.850Z,1895
2017-05-26T10:39:13.032Z,1885
2017-05-26T10:44:09.644Z,2040
2017-05-26T10:49:06.214Z,2255
2017-05-26T10:54:02.822Z,2150
2017-05-26T11:04:01.414Z,2165
2017-05-26T11:09:01.265Z,1890
2017-05-26T11:13:57.309Z,2200
2017-05-26T11:23:56.256Z,1965
2017-05-26T11:28:54.337Z,2065
2017-05-26T11:33:50.213Z,2015
2017-05-26T11:38:49.311Z,2035
2017-05-26T11:43:45.324Z,1950
2017-05-26T11:58:44.962Z,2045
2017-05-26T12:03:44.022Z,2095
2017-05-26T12:08:39.722Z,2235
2017-05-26T12:13:36.192Z,2205
2017-05-26T12:18:32.546Z,2180
2017-05-26T12:23:31.284Z,2205
2017-05-26T12:28:27.658Z,2200
2017-05-26T12:33:23.067Z,2130
2017-05-26T12:38:18.017Z,2175
2017-05-26T12:43:13.638Z,2150
2017-05-26T12:48:09.821Z,2090
2017-05-26T12:53:06.093Z,2295
2017-05-26T12:58:02.211Z,2440
2017-05-26T13:02:58.388Z,2060
2017-05-26T13:12:57.074Z,1860
2017-05-26T13:17:52.669Z,2215
2017-05-26T13:22:47.504Z,1955
2017-05-26T13:27:42.924Z,2115
2017-05-26T13:32:38.085Z,2050
2017-05-26T13:37:36.481Z,1795
2017-05-26T13:42:34.591Z,2045
2017-05-26T13:52:32.524Z,2005
2017-05-26T13:57:27.997Z,1865
2017-05-26T14:02:25.321Z,1910
2017-05-26T14:07:22.301Z,130
2017-05-26T14:12:20.681Z,115
2017-05-26T14:17:15.213Z,110
2017-05-26T14:22:11.620Z,110
2017-05-26T14:27:06.545Z,105
2017-05-26T14:32:02.094Z,105
2017-05-26T14:36:57.618Z,100
2017-05-26T14:41:53.555Z,100
2017-05-26T14:46:48.999Z,100
2017-05-26T14:51:45.392Z,95
2017-05-26T14:56:41.463Z,95
2017-05-26T15:01:36.876Z,90
2017-05-26T15:06:33.476Z,90
2017-05-26T15:11:29.738Z,90
2017-05-26T15:16:25.501Z,90
2017-05-26T15:21:21.430Z,90
2017-05-26T15:26:18.597Z,85
2017-05-26T15:31:14.106Z,85
2017-05-26T15:36:11.306Z,85
2017-05-26T15:41:06.799Z,85
2017-05-26T15:46:04.247Z,85
2017-05-26T15:50:59.581Z,80
2017-05-26T15:55:55.823Z,80
2017-05-26T16:00:51.832Z,80
2017-05-26T16:05:47.882Z,80
2017-05-26T16:10:44.535Z,80
2017-05-26T16:15:42.808Z,80
2017-05-26T16:20:38.299Z,80
2017-05-26T16:25:34.625Z,75
2017-05-26T16:30:31.392Z,75
2017-05-26T16:35:27.496Z,75
2017-05-26T16:40:24.167Z,75
2017-05-26T16:45:20.194Z,75
2017-05-26T16:50:16.904Z,70
2017-05-26T16:55:12.838Z,70
2017-05-26T17:00:08.857Z,70
2017-05-26T17:05:05.243Z,70
2017-05-26T17:10:02.025Z,70
2017-05-26T17:15:07.994Z,65
2017-05-26T17:30:12.309Z,65
2017-05-26T17:35:07.923Z,60
2017-05-26T17:40:05.548Z,60
2017-05-26T17:45:04.615Z,60
2017-05-26T17:50:00.343Z,55
2017-05-26T17:54:56.196Z,55
2017-05-26T17:59:52.858Z,55
2017-05-26T18:04:49.319Z,50
2017-05-26T18:14:45.092Z,45
2017-05-26T18:19:40.886Z,45
2017-05-26T18:24:36.885Z,40
2017-05-26T18:29:32.770Z,40
2017-05-26T18:34:29.374Z,40
2017-05-26T18:39:26.999Z,35
2017-05-26T18:44:22.232Z,30
2017-05-26T18:54:20.775Z,25
2017-05-26T18:59:18.079Z,20
2017-05-26T19:04:14.865Z,15
2017-05-26T19:09:10.168Z,15
2017-05-26T19:14:05.892Z,10
2017-05-26T19:29:02.689Z,5
2017-05-26T19:44:00.974Z,0
2017-05-26T19:48:58.318Z,0
2017-05-26T19:53:54.126Z,0
2017-05-26T19:58:50.560Z,0
2017-05-26T20:03:46.175Z,0
2017-05-26T20:08:44.166Z,0
2017-05-26T20:18:39.449Z,0
2017-05-26T20:23:37.568Z,0
2017-05-26T20:28:35.832Z,0
2017-05-26T20:33:35.925Z,0
2017-05-26T20:38:33.987Z,0
2017-05-26T20:43:29.847Z,0
2017-05-26T20:58:33.859Z,0
2017-05-26T21:03:32.456Z,0
2017-05-26T21:08:30.138Z,0
2017-05-26T21:13:29.265Z,0
2017-05-26T21:18:27.389Z,0
2017-05-26T21:33:26.324Z,0
2017-05-26T21:38:22.210Z,0
2017-05-26T21:43:19.314Z,0
2017-05-26T21:48:18.833Z,0
2017-05-26T21:53:13.507Z,0
2017-05-26T21:58:12.858Z,0
2017-05-26T22:03:08.079Z,0
2017-05-26T22:08:07.807Z,0
2017-05-26T22:18:03.952Z,0
2017-05-26T22:23:03.963Z,0
2017-05-26T22:28:00.125Z,0
2017-05-26T22:32:56.715Z,0
2017-05-26T22:37:53.973Z,0
2017-05-26T22:47:53.634Z,0
2017-05-26T22:57:50.649Z,0
2017-05-26T23:02:47.120Z,0
2017-05-26T23:07:44.059Z,0
2017-05-26T23:12:40.079Z,0
2017-05-26T23:27:41.480Z,0
2017-05-26T23:37:42.600Z,0
2017-05-26T23:42:39.670Z,0
2017-05-26T23:47:35.709Z,0
2017-05-26T23:52:31.952Z,0
2017-05-26T23:57:28.836Z,0
